Main page
METAR-TAF:

METAR-TAF

Airports :

Luce County Airport

Newberry, Michigan, United States

latitude: 46-18-40N, longitude: 085-27-26W, elevation: 265 m

Current weather observation

The report was made 24 minutes ago, at 09:35 UTC
Wind 3 kt from the East/Southeast
Temperature 8°C
Humidity 76%
Pressure 1021 hPa
Visibility: 16.1 km
Clear sky

METAR: KERY 150935Z AUTO 11003KT 10SM CLR 08/04 A3016 RMK AO2 T00780041

Time: 05:59 (09:59 UTC)


TAF: missing

Weather observations and forecasts of more than 4000 airports (METAR and TAF reports).

The available stations are represented by yellow and red dots on the map.

Hover mouse over dot to see the name of the station.

Then click to see weather observations and forecasts.

To change the map : click on the green buttons with a black cross to zoom in, on the green button with a dash to zoom out, or on the green arrows for adjacent maps.


METAR-TAF: